Blue Oak Ranch Reserve, California Weather observations

Data are for 10 minute period ending at time listed.
 Day   Time   Solar   Ave.   Ave.  Ave.  Vector  Max.   Baro.   Total    
  of    of     Rad.   Air    Rel.  Wind   Wind   Wind  Press.  Precip.   
Year   Day            Temp.  Hum.  Speed  Dir.   Gust                    
2014   (PST)  Kw/m2    F      %     mph   deg.    mph    mb.     in.     
-------------------------------------------------------------------------
 208   22:30   0.00   64.9    47    1.0   268     1.9   948.9    0.00 
 208   22:40   0.00   64.5    48    0.1     3     0.8   948.9    0.00 
 208   22:50   0.00   64.0    49    0.1    53     0.7   948.9    0.00 
 208   23:00   0.00   63.8    49    0.6    81     1.6   948.9    0.00 
 208   23:10   0.00   63.2    51    1.3   303     2.7   948.8    0.00 
 208   23:20   0.00   62.4    52    1.1   283     1.8   948.9    0.00 
 208   23:30   0.00   62.6    52    1.3    59     2.3   948.9    0.00 
 208   23:40   0.00   62.3    52    0.5    56     1.7   948.9    0.00 
 208   23:50   0.00   61.8    54    0.8   288     2.0   948.8    0.00 
 209    0:00   0.00   62.0    54    0.2     3     0.9   948.8    0.00 
 209    0:10   0.00   62.3    53    0.2   285     1.0   948.7    0.00 
 209    0:20   0.00   62.4    53    0.7    85     1.5   948.7    0.00 
 209    0:30   0.00   61.9    53    0.2   290     0.7   948.7    0.00 
 209    0:40   0.00   61.4    54    0.1   321     0.6   948.6    0.00 
 209    0:50   0.00   61.4    54    0.8   282     2.0   948.6    0.00 
 209    1:00   0.00   61.6    52    0.8    75     1.8   948.5    0.00 
 209    1:10   0.00   61.6    50    0.3    72     1.5   948.4    0.00 
 209    1:20   0.00   61.0    51    0.2   307     0.9   948.4    0.00 
 209    1:30   0.00   61.2    48    0.8   296     1.4   948.4    0.00 
 209    1:40   0.00   61.8    44    0.1   307     0.9   948.3    0.00 
 209    1:50   0.00   62.3    45    0.1   149     0.7   948.3    0.00 
 209    2:00   0.00   62.6    41    0.0     0     0.0   948.2    0.00 
 209    2:10   0.00   62.6    42    0.1   337     0.8   948.1    0.00 
 209    2:20   0.00   62.5    41    0.8   300     1.5   948.1    0.00 
 209    2:30   0.00   62.9    35    0.0     0     0.0   948.1    0.00 
 209    2:40   0.00   63.7    32    0.0     0     0.0   948.1    0.00 
 209    2:50   0.00   63.3    32    0.0     0     0.0   948.1    0.00 
 209    3:00   0.00   63.4    32    0.0     0     0.0   948.1    0.00 
 209    3:10   0.00   63.3    31    0.0     0     0.0   948.1    0.00 
 209    3:20   0.00   63.4    30    0.2   136     1.5   948.2    0.00 
 209    3:30   0.00   63.0    28    1.0   109     1.8   948.3    0.00 
 209    3:40   0.00   62.9    29    0.3   328     1.3   948.4    0.00 
 209    3:50   0.00   62.2    29    0.6   314     1.2   948.4    0.00 
 209    4:00   0.00   61.7    28    0.7    64     2.0   948.4    0.00 
 209    4:10   0.00   61.7    29    0.3   266     1.1   948.5    0.00 
 209    4:20   0.00   61.5    28    0.1   114     0.8   948.6    0.00 
 209    4:30   0.00   61.0    28    0.1    79     0.8   948.6    0.00 
 209    4:40   0.00   60.9    27    0.4    74     1.1   948.7    0.00 
 209    4:50   0.00   60.6    27    0.1   121     0.6   948.7    0.00 
 209    5:00   0.00   60.8    26    0.5    43     1.5   948.7    0.00 
 209    5:10   0.01   60.3    29    1.1   309     2.2   948.7    0.00 
 209    5:20   0.01   60.1    27    0.4    46     1.1   948.8    0.00 
 209    5:30   0.01   60.5    27    0.2   268     1.1   948.9    0.00 
 209    5:40   0.01   60.7    28    0.1    50     0.9   948.9    0.00 
 209    5:50   0.01   60.4    30    0.0   312     0.9   948.9    0.00 
 209    6:00   0.02   60.8    30    1.2   286     2.3   949.1    0.00 
 209    6:10   0.03   61.5    28    0.0     0     0.0   949.1    0.00 
 209    6:20   0.04   62.5    27    0.0   135     0.4   949.2    0.00 
 209    6:30   0.06   63.7    25    0.0     0     0.0   949.2    0.00 
 209    6:40   0.14   65.2    25    0.0     0     0.0   949.3    0.00 
 209    6:50   0.13   69.8    22    0.1    17     0.9   949.4    0.00 
 209    7:00   0.12   72.3    23    0.4    83     1.4   949.6    0.00 
 209    7:10   0.18   72.4    20    0.2   142     1.0   949.8    0.00 
 209    7:20   0.26   76.7    17    0.8   143     3.0   950.0    0.00 
 209    7:30   0.26   78.7    20    1.1   130     3.5   950.3    0.00 
 209    7:40   0.18   77.7    22    1.1   149     3.7   950.5    0.00 
 209    7:50   0.38   78.4    22    0.2   285     1.3   950.7    0.00 
 209    8:00   0.44   82.0    19    1.1   161     4.3   950.8    0.00 
 209    8:10   0.53   80.9    17    3.3   154     5.0   950.9    0.00 
 209    8:20   0.56   81.6    14    3.5   134     6.5   950.8    0.00 
 209    8:30   0.58   83.0    14    3.5   150     6.1   950.8    0.00 
 209    8:40   0.60   83.3    13    5.1   143     8.3   950.8    0.00 
 209    8:50   0.62   83.8    12    4.4   134     6.7   950.8    0.00 
 209    9:00   0.60   84.6    11    4.0   133     6.4   950.7    0.00 
 209    9:10   0.61   85.9    10    1.9   119     4.9   950.5    0.00 
 209    9:20   0.69   88.2     9    1.7   228     4.8   950.5    0.00 
 209    9:30   0.64   89.5    17    4.7   240     7.8   950.4    0.00 
 209    9:40   0.74   88.4    23    4.7   238     6.9   950.4    0.00 
 209    9:50   0.61   86.8    27    5.6   235     8.2   950.5    0.00 
 209   10:00   0.72   84.6    31    4.0   248     7.7   950.6    0.00 
 209   10:10   0.77   85.2    30    4.2   269     8.0   950.6    0.00 
 209   10:20   0.72   84.7    29    6.0   278     8.7   950.6    0.00 
 209   10:30   0.61   85.2    27    5.0   240     7.6   950.7    0.00 
 209   10:40   0.78   85.1    28    5.1   256     7.5   950.8    0.00 
 209   10:50   0.79   86.4    28    4.2   255     6.4   950.8    0.00 
 209   11:00   0.80   86.5    30    5.9   268     8.7   950.8    0.00 
 209   11:10   0.99   86.2    30    5.8   277     9.3   950.8    0.00 
 209   11:20   0.54   86.2    30    6.2   276     8.8   950.8    0.00 
 209   11:30   0.56   84.3    32    5.1   276     9.3   950.9    0.00 
 209   11:40   0.86   85.6    31    4.8   258     8.3   950.9    0.00 
 209   11:50   0.96   87.9    26    6.1   248     9.9   950.9    0.00 
 209   12:00   0.96   88.2    26    7.3   269    10.7   951.0    0.00 
 209   12:10   0.96   88.0    26    7.6   260    12.2   951.0    0.00 
 209   12:20   1.01   87.6    26    7.4   250    11.0   950.9    0.00 
 209   12:30   0.96   87.2    28    7.3   259    12.7   950.9    0.00 
 209   12:40   1.00   88.2    26    7.2   272    12.5   950.9    0.00 
 209   12:50   0.97   88.6    25    8.1   268    13.4   950.9    0.00 
 209   13:00   0.50   88.2    24    7.4   260    13.2   950.9    0.00 
 209   13:10   0.32   85.7    27    4.9   248     9.3   950.9    0.00 
 209   13:20   0.75   86.3    27    4.4   246     8.8   950.9    0.00 
 209   13:30   0.88   89.4    25    5.6   268     9.9   950.8    0.00 
 209   13:40   0.85   90.5    24    5.9   248    10.2   950.8    0.00 
 209   13:50   0.85   91.2    23    6.4   253    11.5   950.8    0.00 
 209   14:00   0.80   91.4    19    5.4   230    10.3   950.9    0.00 
 209   14:10   0.69   89.3    24    5.2   212    10.2   950.9    0.00 
 209   14:20   0.81   90.3    22    4.9   238     8.6   950.8    0.00 
 209   14:30   0.65   91.5    23    5.4   256    10.6   950.8    0.00 
 209   14:40   0.60   89.8    25    4.7   264     8.4   950.8    0.00 
 209   14:50   0.48   89.9    24    5.3   238     9.6   950.7    0.00 
 209   15:00   0.48   87.9    25    5.3   249     8.8   950.7    0.00 
 209   15:10   0.50   88.0    26    4.6   244     9.1   950.6    0.00 
 209   15:20   0.60   88.0    27    5.2   241     8.2   950.4    0.00 
 209   15:30   0.65   89.0    26    5.6   259     8.6   950.4    0.00 
 209   15:40   0.58   90.1    25    4.8   258     7.7   950.3    0.00 
 209   15:50   0.50   89.9    26    5.5   253    10.8   950.3    0.00 
 209   16:00   0.43   87.4    30    4.5   245     7.7   950.3    0.00 
 209   16:10   0.45   87.3    28    4.1   248     8.0   950.2    0.00 
 209   16:20   0.51   87.5    26    5.0   236     9.2   950.2    0.00 
 209   16:30   0.47   87.3    27    4.2   245     7.7   950.2    0.00 
 209   16:40   0.37   87.0    28    4.3   234     7.5   950.2    0.00 
 209   16:50   0.44   87.3    28    3.6   222     6.4   950.1    0.00 
 209   17:00   0.38   88.1    28    4.3   264     7.5   950.0    0.00 
 209   17:10   0.37   87.4    29    5.8   267     8.5   949.9    0.00 
 209   17:20   0.29   86.0    30    6.1   276     9.6   949.9    0.00 
 209   17:30   0.26   83.9    33    5.1   278     7.9   949.9    0.00 
 209   17:40   0.30   84.2    33    3.3   256     5.7   950.0    0.00 
 209   17:50   0.18   84.9    30    4.0   240     5.6   950.0    0.00 
 209   18:00   0.07   82.9    32    3.4   233     5.3   950.1    0.00 
 209   18:10   0.06   81.2    35    3.4   264     5.8   950.2    0.00 
 209   18:20   0.05   80.1    37    1.1   267     4.2   950.3    0.00 
 209   18:30   0.04   79.8    36    0.3    29     1.1   950.4    0.00 
 209   18:40   0.03   79.0    37    0.4   132     1.9   950.4    0.00 
 209   18:50   0.03   78.3    38    2.0   258     3.7   950.5    0.00 
 209   19:00   0.03   77.9    38    2.0   293     3.8   950.5    0.00 
 209   19:10   0.01   77.0    38    0.5    10     2.1   950.6    0.00 
 209   19:20   0.01   75.3    37    0.1   344     0.8   950.7    0.00 
 209   19:30   0.01   74.0    38    0.8    63     2.7   950.7    0.00 
 209   19:40   0.00   73.1    40    1.7    52     2.7   950.8    0.00 
 209   19:50   0.00   72.3    42    1.0    23     2.0   950.8    0.00 
 209   20:00   0.00   71.2    44    0.9   282     2.3   950.7    0.00 
 209   20:10   0.00   70.9    44    0.7   287     2.6   950.7    0.00 
 209   20:20   0.00   70.6    44    1.0    92     2.0   950.9    0.00 
 209   20:30   0.00   70.0    44    0.1   246     0.9   951.0    0.00 
 209   20:40   0.00   69.8    44    1.2    72     2.2   951.0    0.00 
 209   20:50   0.00   69.4    44    0.4    61     1.6   951.0    0.00 
 209   21:00   0.00   69.2    46    1.2    89     3.9   951.0    0.00 
 209   21:10   0.00   68.9    47    0.6   127     1.8   951.0    0.00 
 209   21:20   0.00   69.8    53    1.0   140     3.1   951.0    0.00 
 209   21:30   0.00   69.8    55    0.5   119     2.3   951.0    0.00 
 209   21:40   0.00   69.2    58    0.5   194     2.3   951.0    0.00 
 209   21:50   0.00   68.7    60    0.3   205     1.4   951.0    0.00 
 209   22:00   0.00   68.5    60    0.0   233     0.5   951.0    0.00 
 209   22:10   0.00   67.8    61    0.1   245     1.2   950.9    0.00 
 209   22:20   0.00   67.1    59    0.1   220     0.7   950.9    0.00 

Return to Blue Oak Ranch Reserve graphs page.


Western Regional Climate Center,wrcc@dri.edu